createdAt,value
2023-03-29T00:00:35.873Z,97024.38
2023-03-29T00:03:07.799Z,97006.50
2023-03-29T00:05:41.096Z,97011.47
2023-03-29T00:08:14.916Z,97015.19
2023-03-29T00:10:49.174Z,97018.84
2023-03-29T00:13:20.889Z,97019.19
2023-03-29T00:15:54.185Z,97036.25
2023-03-29T00:18:25.800Z,97039.47
2023-03-29T00:20:59.728Z,97061.19
2023-03-29T00:23:31.686Z,97050.41
2023-03-29T00:26:05.937Z,97016.69
2023-03-29T00:28:39.331Z,97018.13
2023-03-29T00:31:15.538Z,97031.94
2023-03-29T00:33:47.513Z,97017.31
2023-03-29T00:36:19.021Z,97013.19
2023-03-29T00:38:50.984Z,96998.84
2023-03-29T00:41:22.665Z,97014.84
2023-03-29T00:44:02.013Z,97009.13
2023-03-29T00:46:34.951Z,96996.41
2023-03-29T00:49:12.716Z,96989.81
2023-03-29T00:51:45.034Z,96984.78
2023-03-29T00:54:18.740Z,96980.03
2023-03-29T00:56:51.235Z,96969.09
2023-03-29T00:59:28.170Z,96971.50
2023-03-29T01:02:05.405Z,96978.56
2023-03-29T01:04:53.076Z,96970.94
2023-03-29T01:07:57.922Z,96970.63
2023-03-29T01:10:55.164Z,96969.69
2023-03-29T01:13:52.801Z,96962.91
2023-03-29T01:16:26.567Z,96967.28
2023-03-29T01:18:58.681Z,96970.06
2023-03-29T01:21:36.261Z,96982.94
2023-03-29T01:24:47.020Z,96988.97
2023-03-29T01:28:08.011Z,96981.56
2023-03-29T01:30:52.568Z,96987.88
2023-03-29T01:33:31.608Z,96959.78
2023-03-29T01:36:27.189Z,96965.66
2023-03-29T01:39:05.906Z,96943.38
2023-03-29T01:41:59.392Z,96935.09
2023-03-29T01:44:38.239Z,96937.03
2023-03-29T01:47:19.884Z,96942.81
2023-03-29T01:50:07.502Z,96961.13
2023-03-29T01:52:53.800Z,96974.91
2023-03-29T01:55:33.831Z,96964.25
2023-03-29T01:58:09.478Z,96948.91
2023-03-29T02:00:42.132Z,96962.34
2023-03-29T02:03:17.430Z,96980.19
2023-03-29T02:05:50.504Z,96972.34
2023-03-29T02:08:23.096Z,96966.19
2023-03-29T02:10:54.835Z,96964.94
2023-03-29T02:13:27.282Z,96963.63
2023-03-29T02:16:03.151Z,96957.34
2023-03-29T02:18:36.055Z,96939.28
2023-03-29T02:21:09.449Z,96945.28
2023-03-29T02:23:45.831Z,96888.28
2023-03-29T02:26:17.884Z,96872.38
2023-03-29T02:28:49.944Z,96879.19
2023-03-29T02:31:31.973Z,96915.28
2023-03-29T02:34:13.756Z,96920.47
2023-03-29T02:36:52.771Z,96916.41
2023-03-29T02:39:27.768Z,96908.81
2023-03-29T02:41:59.858Z,96905.91
2023-03-29T02:44:36.581Z,96882.72
2023-03-29T02:47:20.829Z,96888.31
2023-03-29T02:49:53.011Z,96892.94
2023-03-29T02:52:33.445Z,96903.97
2023-03-29T02:55:14.661Z,96910.06
2023-03-29T02:57:46.272Z,96904.50
2023-03-29T03:00:23.141Z,96897.94
2023-03-29T03:02:55.194Z,96899.47
2023-03-29T03:05:26.750Z,96881.19
2023-03-29T03:07:58.564Z,96896.09
2023-03-29T03:10:30.548Z,96889.00
2023-03-29T03:13:02.770Z,96886.56
2023-03-29T03:15:37.383Z,96884.44
2023-03-29T03:18:10.657Z,96898.59
2023-03-29T03:20:42.626Z,96911.59
2023-03-29T03:23:14.187Z,96910.47
2023-03-29T03:25:45.750Z,96882.47
2023-03-29T03:28:17.499Z,96857.28
2023-03-29T03:30:49.610Z,96878.09
2023-03-29T03:33:21.216Z,96877.44
2023-03-29T03:35:57.025Z,96879.47
2023-03-29T03:38:29.811Z,96853.50
2023-03-29T03:41:01.680Z,96857.59
2023-03-29T03:43:34.633Z,96864.00
2023-03-29T03:46:08.514Z,96847.78
2023-03-29T03:48:40.157Z,96846.00
2023-03-29T03:51:12.047Z,96855.16
2023-03-29T03:53:43.731Z,96872.34
2023-03-29T03:56:16.294Z,96877.00
2023-03-29T03:58:48.002Z,96873.31
2023-03-29T04:01:19.657Z,96870.88
2023-03-29T04:03:51.347Z,96864.88
2023-03-29T04:06:23.034Z,96868.69
2023-03-29T04:08:54.670Z,96906.97
2023-03-29T04:11:26.202Z,96927.78
2023-03-29T04:13:58.149Z,96929.91
2023-03-29T04:16:30.208Z,96871.28
2023-03-29T04:19:01.929Z,96885.31
2023-03-29T04:21:34.380Z,96902.13
2023-03-29T04:24:06.738Z,96888.19
2023-03-29T04:26:38.423Z,96886.44
2023-03-29T04:29:10.101Z,96881.63
2023-03-29T04:31:41.778Z,96878.59
2023-03-29T04:34:13.496Z,96873.41
2023-03-29T04:36:45.185Z,96880.16
2023-03-29T04:39:19.979Z,96865.91
2023-03-29T04:41:51.599Z,96880.63
2023-03-29T04:44:23.150Z,96903.88
2023-03-29T04:46:54.812Z,96887.94
2023-03-29T04:49:26.425Z,96856.00
2023-03-29T04:51:57.974Z,96848.00
2023-03-29T04:54:29.554Z,96842.91
2023-03-29T04:57:01.466Z,96859.63
2023-03-29T04:59:33.415Z,96862.00
2023-03-29T05:02:05.243Z,96865.81
2023-03-29T05:04:36.852Z,96871.25
2023-03-29T05:07:08.416Z,96865.69
2023-03-29T05:09:41.613Z,96870.19
2023-03-29T05:12:13.152Z,96864.16
2023-03-29T05:14:44.700Z,96857.34
2023-03-29T05:17:16.298Z,96852.47
2023-03-29T05:19:47.916Z,96853.25
2023-03-29T05:22:20.227Z,96836.72
2023-03-29T05:24:52.792Z,96829.81
2023-03-29T05:27:24.761Z,96858.84
2023-03-29T05:29:56.310Z,96855.75
2023-03-29T05:32:28.585Z,96863.38
2023-03-29T05:35:00.229Z,96874.28
2023-03-29T05:37:34.252Z,96861.59
2023-03-29T05:40:10.316Z,96857.91
2023-03-29T05:42:42.443Z,96851.63
2023-03-29T05:45:14.002Z,96856.22
2023-03-29T05:47:46.350Z,96865.84
2023-03-29T05:50:18.084Z,96875.97
2023-03-29T05:52:49.567Z,96893.53
2023-03-29T05:55:21.120Z,96893.16
2023-03-29T05:57:52.689Z,96893.53
2023-03-29T06:00:24.584Z,96891.63
2023-03-29T06:03:06.450Z,96899.78
2023-03-29T06:05:56.257Z,96913.16
2023-03-29T06:08:28.859Z,96906.59
2023-03-29T06:11:06.580Z,96896.03
2023-03-29T06:13:42.185Z,96892.75
2023-03-29T06:16:13.992Z,96898.97
2023-03-29T06:18:45.573Z,96901.06
2023-03-29T06:21:17.136Z,96894.88
2023-03-29T06:23:48.723Z,96880.50
2023-03-29T06:26:20.373Z,96881.66
2023-03-29T06:28:52.509Z,96879.09
2023-03-29T06:31:24.842Z,96871.78
2023-03-29T06:33:58.729Z,96883.78
2023-03-29T06:36:34.280Z,96878.09
2023-03-29T06:39:08.612Z,96869.28
2023-03-29T06:41:40.300Z,96868.91
2023-03-29T06:44:11.877Z,96868.03
2023-03-29T06:46:44.104Z,96867.97
2023-03-29T06:49:18.499Z,96866.41
2023-03-29T06:51:50.057Z,96867.97
2023-03-29T06:54:22.125Z,96879.22
2023-03-29T06:56:53.668Z,96875.63
2023-03-29T06:59:26.555Z,96883.03
2023-03-29T07:01:58.620Z,96880.72
2023-03-29T07:04:32.191Z,96886.84
2023-03-29T07:07:04.132Z,96894.78
2023-03-29T07:09:35.901Z,96909.34
2023-03-29T07:12:08.980Z,96911.88
2023-03-29T07:14:40.473Z,96925.16
2023-03-29T07:17:12.043Z,96919.56
2023-03-29T07:19:43.879Z,96922.59
2023-03-29T07:22:15.473Z,96924.16
2023-03-29T07:24:47.179Z,96931.03
2023-03-29T07:27:19.576Z,96924.63
2023-03-29T07:29:51.416Z,96918.00
2023-03-29T07:32:23.092Z,96918.25
2023-03-29T07:34:55.654Z,96917.03
2023-03-29T07:37:29.778Z,96923.09
2023-03-29T07:40:03.380Z,96914.88
2023-03-29T07:42:39.532Z,96914.63
2023-03-29T07:45:13.694Z,96915.66
2023-03-29T07:47:46.330Z,96915.44
2023-03-29T07:50:18.098Z,96909.16
2023-03-29T07:52:50.124Z,96913.16
2023-03-29T07:55:24.093Z,96924.25
2023-03-29T07:57:55.843Z,96920.06
2023-03-29T08:00:28.254Z,96912.28
2023-03-29T08:03:00.758Z,96906.34
2023-03-29T08:05:40.772Z,96912.00
2023-03-29T08:08:14.158Z,96906.75
2023-03-29T08:10:46.083Z,96899.59
2023-03-29T08:13:17.769Z,96911.06
2023-03-29T08:15:50.296Z,96901.56
2023-03-29T08:18:21.825Z,96909.25
2023-03-29T08:20:53.406Z,96908.53
2023-03-29T08:23:25.003Z,96903.00
2023-03-29T08:25:56.609Z,96908.25
2023-03-29T08:28:28.223Z,96913.16
2023-03-29T08:31:00.050Z,96913.88
2023-03-29T08:33:32.064Z,96912.91
2023-03-29T08:36:04.775Z,96915.41
2023-03-29T08:38:36.586Z,96914.22
2023-03-29T08:42:08.852Z,96925.19
2023-03-29T08:45:13.418Z,96924.41
2023-03-29T08:47:59.656Z,96932.88
2023-03-29T08:50:40.524Z,96928.78
2023-03-29T08:53:27.391Z,96934.09
2023-03-29T08:56:03.045Z,96937.28
2023-03-29T08:58:37.468Z,96942.78
2023-03-29T09:01:12.672Z,96935.50
2023-03-29T09:03:50.439Z,96926.63
2023-03-29T09:06:22.205Z,96936.03
2023-03-29T09:08:56.334Z,96926.16
2023-03-29T09:11:51.641Z,96919.59
2023-03-29T09:14:32.565Z,96920.13
2023-03-29T09:17:20.049Z,96926.75
2023-03-29T09:20:06.994Z,96921.56
2023-03-29T09:22:52.899Z,96922.81
2023-03-29T09:25:52.634Z,96925.56
2023-03-29T09:28:59.691Z,96931.31
2023-03-29T09:31:41.590Z,96926.03
2023-03-29T09:34:43.343Z,96925.22
2023-03-29T09:37:29.118Z,96930.94
2023-03-29T09:40:05.069Z,96918.03
2023-03-29T09:42:38.238Z,96919.69
2023-03-29T09:45:10.620Z,96913.31
2023-03-29T09:47:55.190Z,96916.66
2023-03-29T09:50:35.328Z,96913.25
2023-03-29T09:53:09.233Z,96912.13
2023-03-29T09:55:41.211Z,96903.81
2023-03-29T09:58:24.475Z,96899.94
2023-03-29T10:01:03.100Z,96906.63
2023-03-29T10:03:36.140Z,96908.09
2023-03-29T10:06:11.127Z,96911.78
2023-03-29T10:08:47.814Z,96909.72
2023-03-29T10:11:36.798Z,96898.28
2023-03-29T10:14:26.437Z,96906.22
2023-03-29T10:16:58.340Z,96906.53
2023-03-29T10:19:36.770Z,96904.69
2023-03-29T10:22:18.425Z,96910.81
2023-03-29T10:24:53.394Z,96913.56
2023-03-29T10:27:29.449Z,96907.91
2023-03-29T10:30:13.421Z,96910.66
2023-03-29T10:35:24.059Z,96899.03
2023-03-29T10:38:01.499Z,96893.94
2023-03-29T10:40:35.471Z,96897.69
2023-03-29T10:43:19.404Z,96899.66
2023-03-29T10:45:55.399Z,96892.63
2023-03-29T10:48:31.415Z,96892.94
2023-03-29T10:51:05.991Z,96890.44
2023-03-29T10:53:38.185Z,96891.63
2023-03-29T10:56:15.545Z,96892.50
2023-03-29T10:59:27.614Z,96897.22
2023-03-29T11:02:14.166Z,96902.22
2023-03-29T11:05:01.434Z,96903.13
2023-03-29T11:07:40.352Z,96898.03
2023-03-29T11:10:36.660Z,96900.19
2023-03-29T11:13:20.287Z,96882.91
2023-03-29T11:16:16.987Z,96893.22
2023-03-29T11:19:11.781Z,96883.88
2023-03-29T11:22:08.718Z,96881.41
2023-03-29T11:25:06.120Z,96880.06
2023-03-29T11:28:16.131Z,96873.66
2023-03-29T11:30:57.384Z,96876.91
2023-03-29T11:34:12.479Z,96884.13
2023-03-29T11:36:57.240Z,96874.25
2023-03-29T11:40:29.756Z,96864.84
2023-03-29T11:43:09.248Z,96866.66
2023-03-29T11:45:53.491Z,96863.63
2023-03-29T11:48:32.390Z,96861.38
2023-03-29T11:51:12.978Z,96862.66
2023-03-29T11:54:03.196Z,96852.19
2023-03-29T11:56:52.193Z,96849.19
2023-03-29T11:59:40.830Z,96857.09
2023-03-29T12:02:39.573Z,96852.94
2023-03-29T12:05:20.748Z,96848.34
2023-03-29T12:07:59.255Z,96854.97
2023-03-29T12:10:42.980Z,96850.13
2023-03-29T12:13:14.445Z,96847.00
2023-03-29T12:15:55.575Z,96847.25
2023-03-29T12:18:42.323Z,96839.59
2023-03-29T12:21:21.704Z,96837.69
2023-03-29T12:23:53.498Z,96836.66
2023-03-29T12:26:48.570Z,96820.19
2023-03-29T12:29:44.101Z,96829.06
2023-03-29T12:32:35.902Z,96826.63
2023-03-29T12:35:46.672Z,96833.84
2023-03-29T12:38:31.057Z,96817.47
2023-03-29T12:41:19.307Z,96826.22
2023-03-29T12:43:51.418Z,96815.91
2023-03-29T12:46:25.763Z,96820.22
2023-03-29T12:49:31.505Z,96829.34
2023-03-29T12:52:19.924Z,96820.63
2023-03-29T12:54:59.072Z,96817.91
2023-03-29T12:58:10.780Z,96814.53
2023-03-29T13:00:45.581Z,96813.75
2023-03-29T13:03:55.301Z,96805.88
2023-03-29T13:06:47.038Z,96808.25
2023-03-29T13:09:29.845Z,96804.47
2023-03-29T13:12:10.570Z,96795.28
2023-03-29T13:14:55.825Z,96792.03
2023-03-29T13:18:22.741Z,96783.13
2023-03-29T13:21:21.201Z,96787.25
2023-03-29T13:24:18.984Z,96789.50
2023-03-29T13:27:10.689Z,96788.72
2023-03-29T13:30:20.096Z,96788.78
2023-03-29T13:33:52.538Z,96798.94
2023-03-29T13:36:46.725Z,96789.31
2023-03-29T13:39:28.133Z,96789.00
2023-03-29T13:42:20.015Z,96787.91
2023-03-29T13:44:52.460Z,96789.53
2023-03-29T13:47:58.333Z,96780.50
2023-03-29T13:50:57.628Z,96785.59
2023-03-29T13:53:54.707Z,96786.97
2023-03-29T13:56:38.755Z,96784.09
2023-03-29T13:59:25.380Z,96768.72
2023-03-29T14:02:00.575Z,96771.69
2023-03-29T14:04:46.699Z,96767.13
2023-03-29T14:07:26.187Z,96767.81
2023-03-29T14:09:59.864Z,96763.78
2023-03-29T14:12:40.389Z,96764.09
2023-03-29T14:15:27.691Z,96756.50
2023-03-29T14:18:00.731Z,96758.97
2023-03-29T14:20:33.272Z,96754.47
2023-03-29T14:23:15.658Z,96751.97
2023-03-29T14:25:47.991Z,96753.28
2023-03-29T14:28:27.942Z,96751.59
2023-03-29T14:30:59.698Z,96751.69
2023-03-29T14:33:34.615Z,96753.63
2023-03-29T14:36:06.922Z,96745.91
2023-03-29T14:38:39.798Z,96743.38
2023-03-29T14:41:11.392Z,96740.78
2023-03-29T14:43:47.144Z,96747.81
2023-03-29T14:46:21.344Z,96738.56
2023-03-29T14:48:55.796Z,96732.94
2023-03-29T14:51:30.411Z,96730.63
2023-03-29T14:54:04.014Z,96728.03
2023-03-29T14:56:35.787Z,96732.47
2023-03-29T14:59:38.784Z,96725.00
2023-03-29T15:02:32.192Z,96726.31
2023-03-29T15:05:07.647Z,96716.28
2023-03-29T15:07:42.868Z,96717.72
2023-03-29T15:10:20.717Z,96718.56
2023-03-29T15:12:53.671Z,96704.53
2023-03-29T15:15:25.791Z,96704.06
2023-03-29T15:17:58.734Z,96715.88
2023-03-29T15:20:36.539Z,96716.69
2023-03-29T15:23:15.278Z,96708.88
2023-03-29T15:26:06.716Z,96712.84
2023-03-29T15:29:23.233Z,96704.81
2023-03-29T15:31:59.199Z,96697.91
2023-03-29T15:34:33.514Z,96688.63
2023-03-29T15:37:05.150Z,96691.09
2023-03-29T15:40:06.755Z,96684.06
2023-03-29T15:42:38.314Z,96685.06
2023-03-29T15:45:18.476Z,96684.75
2023-03-29T15:47:50.213Z,96679.72
2023-03-29T15:50:22.075Z,96680.31
2023-03-29T15:53:08.656Z,96674.13
2023-03-29T15:55:49.000Z,96674.13
2023-03-29T15:58:27.655Z,96674.13
2023-03-29T16:01:43.652Z,96680.06
2023-03-29T16:04:19.014Z,96671.09
2023-03-29T16:06:55.969Z,96675.09
2023-03-29T16:09:27.512Z,96664.47
2023-03-29T16:12:00.358Z,96675.41
2023-03-29T16:14:31.957Z,96673.38
2023-03-29T16:17:06.146Z,96676.31
2023-03-29T16:19:41.202Z,96681.53
2023-03-29T16:22:12.706Z,96677.78
2023-03-29T16:24:44.308Z,96675.91
2023-03-29T16:27:16.853Z,96673.22
2023-03-29T16:29:48.408Z,96672.19
2023-03-29T16:32:20.110Z,96683.56
2023-03-29T16:34:52.327Z,96683.94
2023-03-29T16:37:24.978Z,96683.41
2023-03-29T16:39:56.806Z,96680.94
2023-03-29T16:42:31.617Z,96690.28
2023-03-29T16:45:03.446Z,96687.81
2023-03-29T16:47:35.054Z,96684.78
2023-03-29T16:50:08.279Z,96683.97
2023-03-29T16:52:40.701Z,96679.03
2023-03-29T16:55:13.510Z,96692.13
2023-03-29T16:57:46.986Z,96688.03
2023-03-29T17:00:20.181Z,96673.16
2023-03-29T17:02:54.081Z,96675.13
2023-03-29T17:05:25.937Z,96676.66
2023-03-29T17:08:00.442Z,96683.34
2023-03-29T17:10:32.590Z,96686.50
2023-03-29T17:13:04.084Z,96681.97
2023-03-29T17:15:39.425Z,96685.56
2023-03-29T17:18:12.163Z,96682.63
2023-03-29T17:20:43.792Z,96692.56
2023-03-29T17:23:15.378Z,96689.34
2023-03-29T17:25:47.160Z,96691.13
2023-03-29T17:28:25.903Z,96695.25
2023-03-29T17:30:57.699Z,96686.44
2023-03-29T17:33:31.323Z,96701.13
2023-03-29T17:36:05.919Z,96689.69
2023-03-29T17:38:37.961Z,96680.88
2023-03-29T17:41:09.919Z,96683.81
2023-03-29T17:43:41.409Z,96682.19
2023-03-29T17:46:13.174Z,96681.09
2023-03-29T17:48:46.222Z,96671.69
2023-03-29T17:51:19.769Z,96671.75
2023-03-29T17:53:52.435Z,96676.13
2023-03-29T17:56:24.381Z,96684.13
2023-03-29T17:58:56.209Z,96679.41
2023-03-29T18:01:28.160Z,96685.44
2023-03-29T18:03:59.832Z,96686.88
2023-03-29T18:06:31.349Z,96686.66
2023-03-29T18:09:03.254Z,96693.03
2023-03-29T18:11:38.446Z,96692.22
2023-03-29T18:14:10.076Z,96688.38
2023-03-29T18:16:41.877Z,96688.25
2023-03-29T18:19:13.637Z,96680.69
2023-03-29T18:21:45.318Z,96687.09
2023-03-29T18:24:17.152Z,96683.34
2023-03-29T18:26:48.638Z,96679.81
2023-03-29T18:29:20.916Z,96682.88
2023-03-29T18:31:57.557Z,96679.06
2023-03-29T18:34:30.366Z,96678.78
2023-03-29T18:37:01.894Z,96674.84
2023-03-29T18:39:35.824Z,96668.84
2023-03-29T18:42:08.766Z,96666.50
2023-03-29T18:44:42.272Z,96669.88
2023-03-29T18:47:18.192Z,96662.75
2023-03-29T18:49:49.735Z,96676.94
2023-03-29T18:52:21.294Z,96684.25
2023-03-29T18:54:52.903Z,96689.81
2023-03-29T18:57:24.663Z,96692.59
2023-03-29T18:59:59.086Z,96694.38
2023-03-29T19:02:30.717Z,96702.88
2023-03-29T19:05:02.487Z,96705.81
2023-03-29T19:07:34.851Z,96716.91
2023-03-29T19:10:08.533Z,96728.84
2023-03-29T19:12:40.140Z,96732.09
2023-03-29T19:15:12.620Z,96729.47
2023-03-29T19:17:44.233Z,96735.50
2023-03-29T19:20:16.578Z,96737.56
2023-03-29T19:22:48.098Z,96742.13
2023-03-29T19:25:20.118Z,96747.28
2023-03-29T19:27:51.756Z,96762.25
2023-03-29T19:30:23.362Z,96747.53
2023-03-29T19:32:54.905Z,96755.38
2023-03-29T19:35:26.656Z,96756.13
2023-03-29T19:37:58.240Z,96767.91
2023-03-29T19:40:29.772Z,96761.22
2023-03-29T19:43:01.296Z,96754.97
2023-03-29T19:45:32.803Z,96750.41
2023-03-29T19:48:04.467Z,96744.09
2023-03-29T19:50:45.642Z,96744.00
2023-03-29T19:53:17.317Z,96725.94
2023-03-29T19:55:49.465Z,96717.97
2023-03-29T19:58:21.655Z,96724.19
2023-03-29T20:00:57.996Z,96708.84
2023-03-29T20:03:29.711Z,96702.25
2023-03-29T20:06:02.360Z,96692.03
2023-03-29T20:08:36.221Z,96694.94
2023-03-29T20:11:10.147Z,96683.50
2023-03-29T20:13:45.201Z,96678.03
2023-03-29T20:16:19.016Z,96674.78
2023-03-29T20:18:50.779Z,96665.75
2023-03-29T20:21:22.340Z,96674.41
2023-03-29T20:23:54.064Z,96674.91
2023-03-29T20:26:26.023Z,96679.66
2023-03-29T20:28:57.649Z,96677.50
2023-03-29T20:31:29.951Z,96675.09
2023-03-29T20:34:01.553Z,96678.34
2023-03-29T20:36:33.296Z,96669.66
2023-03-29T20:39:05.130Z,96665.88
2023-03-29T20:41:38.345Z,96673.16
2023-03-29T20:44:10.603Z,96657.03
2023-03-29T20:46:46.134Z,96655.50
2023-03-29T20:49:17.697Z,96652.88
2023-03-29T20:51:58.239Z,96652.47
2023-03-29T20:54:29.985Z,96651.66
2023-03-29T20:57:01.546Z,96650.50
2023-03-29T20:59:34.455Z,96644.88
2023-03-29T21:02:06.497Z,96646.19
2023-03-29T21:04:38.159Z,96645.97
2023-03-29T21:07:14.079Z,96640.31
2023-03-29T21:09:48.278Z,96645.72
2023-03-29T21:12:23.553Z,96640.22
2023-03-29T21:14:55.277Z,96632.88
2023-03-29T21:17:27.032Z,96629.81
2023-03-29T21:19:59.132Z,96623.34
2023-03-29T21:22:31.591Z,96621.63
2023-03-29T21:25:06.512Z,96615.84
2023-03-29T21:27:38.499Z,96619.00
2023-03-29T21:30:16.567Z,96603.97
2023-03-29T21:32:50.541Z,96614.41
2023-03-29T21:35:31.971Z,96620.09
2023-03-29T21:38:04.295Z,96621.72
2023-03-29T21:40:36.660Z,96610.50
2023-03-29T21:43:09.744Z,96613.13
2023-03-29T21:45:43.140Z,96605.28
2023-03-29T21:48:14.715Z,96609.19
2023-03-29T21:50:50.044Z,96613.22
2023-03-29T21:53:21.561Z,96613.22
2023-03-29T21:55:53.138Z,96606.59
2023-03-29T21:58:24.641Z,96611.91
2023-03-29T22:01:01.146Z,96609.19
2023-03-29T22:03:32.870Z,96601.34
2023-03-29T22:06:10.457Z,96598.22
2023-03-29T22:08:41.979Z,96605.19
2023-03-29T22:11:15.844Z,96602.03
2023-03-29T22:13:47.609Z,96593.31
2023-03-29T22:16:19.353Z,96591.97
2023-03-29T22:18:52.605Z,96588.75
2023-03-29T22:21:26.945Z,96592.38
2023-03-29T22:24:01.362Z,96576.34
2023-03-29T22:26:33.228Z,96586.19
2023-03-29T22:29:04.850Z,96585.09
2023-03-29T22:31:37.773Z,96591.41
2023-03-29T22:34:09.411Z,96583.47
2023-03-29T22:36:41.153Z,96589.72
2023-03-29T22:39:13.437Z,96586.84
2023-03-29T22:41:44.972Z,96582.28
2023-03-29T22:44:16.514Z,96574.88
2023-03-29T22:46:48.061Z,96575.06
2023-03-29T22:49:19.627Z,96573.53
2023-03-29T22:51:51.617Z,96558.91
2023-03-29T22:54:23.220Z,96562.56
2023-03-29T22:56:54.858Z,96559.53
2023-03-29T22:59:27.339Z,96560.31
2023-03-29T23:01:58.897Z,96554.06
2023-03-29T23:04:30.762Z,96547.75
2023-03-29T23:07:02.558Z,96547.41
2023-03-29T23:09:34.280Z,96558.69
2023-03-29T23:12:06.138Z,96543.28
2023-03-29T23:14:42.818Z,96542.44
2023-03-29T23:17:19.087Z,96546.44
2023-03-29T23:19:51.441Z,96554.09
2023-03-29T23:22:23.718Z,96543.63
2023-03-29T23:24:55.296Z,96548.84
2023-03-29T23:27:26.820Z,96549.06
2023-03-29T23:29:59.511Z,96536.53
2023-03-29T23:32:31.161Z,96538.91
2023-03-29T23:35:04.442Z,96534.94
2023-03-29T23:37:36.029Z,96526.78
2023-03-29T23:40:14.363Z,96533.97
2023-03-29T23:42:48.323Z,96537.00
2023-03-29T23:45:19.886Z,96529.84
2023-03-29T23:47:51.824Z,96523.50
2023-03-29T23:50:24.888Z,96519.81
2023-03-29T23:52:58.290Z,96509.41
2023-03-29T23:55:32.097Z,96507.16
2023-03-29T23:58:03.637Z,96498.25
